Friday, October 31, 2014, 6:44 PM EDT

KLKU, Louisa, Louisa County Airport/freeman Field

Location: Louisa, VA, United States Lat: 38.01
Local Time: 6:44 PM EDT (22:44 GMT) Lon: -77.97
Time Zone: US/Eastern Elev: 492 ft

Show me the last for .
Show Decoded

2014-10-31 18:35 METAR KLKU 312235Z AUTO 00000KT 10SM OVC060 08/06 A2983 RMK AO2 =
2014-10-31 18:15 METAR KLKU 312215Z AUTO 00000KT 10SM OVC060 10/06 A2983 RMK AO2 =
2014-10-31 17:55 METAR KLKU 312155Z AUTO 00000KT 10SM OVC060 11/06 A2983 RMK AO2 =
2014-10-31 17:35 METAR KLKU 312135Z AUTO 00000KT 10SM OVC060 12/06 A2984 RMK AO2 =
2014-10-31 17:15 METAR KLKU 312115Z AUTO 00000KT 10SM OVC060 13/04 A2983 RMK AO2 =
2014-10-31 16:55 METAR KLKU 312055Z AUTO 00000KT 10SM OVC060 13/04 A2984 RMK AO2 =
2014-10-31 16:35 METAR KLKU 312035Z AUTO 06003KT 10SM OVC060 13/03 A2983 RMK AO2 =
2014-10-31 16:15 METAR KLKU 312015Z AUTO 07005KT 10SM SCT048 OVC060 13/03 A2983 RMK AO2 =
2014-10-31 15:55 METAR KLKU 311955Z AUTO 06005KT 10SM BKN048 OVC060 13/04 A2984 RMK AO2 =
2014-10-31 15:35 METAR KLKU 311935Z AUTO 00000KT 10SM SCT046 OVC050 13/03 A2984 RMK AO2 =
2014-10-31 15:15 METAR KLKU 311915Z AUTO 00000KT 10SM OVC050 14/03 A2984 RMK AO2 =
2014-10-31 14:55 METAR KLKU 311855Z AUTO 00000KT 10SM SCT050 OVC055 13/03 A2985 RMK AO2 =
2014-10-31 14:35 METAR KLKU 311835Z AUTO 00000KT 10SM SCT043 OVC050 13/03 A2986 RMK AO2 =
2014-10-31 14:15 METAR KLKU 311815Z AUTO 06003KT 10SM BKN046 OVC050 13/03 A2987 RMK AO2 =
2014-10-31 13:55 METAR KLKU 311755Z AUTO 00000KT 10SM BKN048 BKN060 13/03 A2988 RMK AO2 =
2014-10-31 13:35 METAR KLKU 311735Z AUTO 32003KT 10SM SCT060 13/02 A2988 RMK AO2 =
2014-10-31 13:15 METAR KLKU 311715Z AUTO 00000KT 10SM SCT043 OVC060 13/03 A2989 RMK AO2 =
2014-10-31 12:55 METAR KLKU 311655Z AUTO 06003KT 10SM SCT041 OVC060 13/03 A2991 RMK AO2 =
2014-10-31 12:35 METAR KLKU 311635Z AUTO 00000KT 10SM OVC060 13/03 A2992 RMK AO2 =
2014-10-31 12:15 METAR KLKU 311615Z AUTO 00000KT 10SM OVC050 12/03 A2993 RMK AO2 =
2014-10-31 11:55 METAR KLKU 311555Z AUTO 08003KT 10SM OVC050 12/04 A2993 RMK AO2 =
2014-10-31 11:35 METAR KLKU 311535Z AUTO 09004KT 10SM OVC050 12/05 A2994 RMK AO2 =
2014-10-31 11:15 METAR KLKU 311515Z AUTO 07004KT 10SM OVC050 11/05 A2994 RMK AO2 =
2014-10-31 10:55 METAR KLKU 311455Z AUTO 00000KT 10SM OVC060 10/04 A2995 RMK AO2 =
2014-10-31 10:35 METAR KLKU 311435Z AUTO 04003KT 10SM OVC060 09/04 A2995 RMK AO2 =
2014-10-31 10:15 METAR KLKU 311415Z AUTO 00000KT 10SM OVC060 08/04 A2996 RMK AO2 =
2014-10-31 09:55 METAR KLKU 311355Z AUTO 00000KT 10SM OVC060 08/03 A2996 RMK AO2 =
2014-10-31 09:35 METAR KLKU 311335Z AUTO 00000KT 10SM OVC060 07/03 A2997 RMK AO2 =
2014-10-31 09:15 METAR KLKU 311315Z AUTO 00000KT 10SM OVC060 07/03 A2998 RMK AO2 =
2014-10-31 08:55 METAR KLKU 311255Z AUTO 00000KT 10SM OVC060 06/03 A2998 RMK AO2 =
2014-10-31 08:35 METAR KLKU 311235Z AUTO 00000KT 10SM OVC060 06/02 A2998 RMK AO2 =
2014-10-31 08:15 METAR KLKU 311215Z AUTO 36003KT 10SM OVC060 05/02 A2997 RMK AO2 =
2014-10-31 07:55 METAR KLKU 311155Z AUTO 35003KT 10SM OVC060 04/03 A2997 RMK AO2 =
2014-10-31 07:35 METAR KLKU 311135Z AUTO 00000KT 10SM OVC060 04/03 A2997 RMK AO2 =
2014-10-31 07:15 METAR KLKU 311115Z AUTO 00000KT 10SM OVC060 03/02 A2998 RMK AO2 =
2014-10-31 06:55 METAR KLKU 311055Z AUTO 00000KT 10SM OVC060 02/01 A2998 RMK AO2 =
2014-10-31 06:35 METAR KLKU 311035Z AUTO 00000KT 7SM SCT060 00/M01 A2998 RMK AO2 =
2014-10-31 06:15 METAR KLKU 311015Z AUTO 00000KT 7SM CLR 00/M01 A2998 RMK AO2 =
2014-10-31 05:55 METAR KLKU 310955Z AUTO 00000KT 10SM CLR 01/00 A2998 RMK AO2 =
2014-10-31 05:35 METAR KLKU 310935Z AUTO 00000KT 10SM CLR 01/01 A2999 RMK AO2 =
2014-10-31 05:15 METAR KLKU 310915Z AUTO 00000KT 10SM SCT060 02/01 A2998 RMK AO2 =
2014-10-31 04:55 METAR KLKU 310855Z AUTO 00000KT 10SM BKN060 02/01 A2999 RMK AO2 =
2014-10-31 04:35 METAR KLKU 310835Z AUTO 00000KT 10SM OVC060 03/02 A2999 RMK AO2 =
2014-10-31 04:15 METAR KLKU 310815Z AUTO 00000KT 10SM OVC060 03/01 A2999 RMK AO2 =
2014-10-31 03:35 METAR KLKU 310735Z AUTO 35003KT 10SM SCT060 04/02 A3000 RMK AO2 =
2014-10-31 03:15 METAR KLKU 310715Z AUTO 34004KT 10SM SCT060 04/02 A3000 RMK AO2 =
2014-10-31 02:55 METAR KLKU 310655Z AUTO 34005KT 10SM SCT050 SCT060 05/02 A3000 RMK AO2 =
2014-10-31 02:35 METAR KLKU 310635Z AUTO 33003KT 10SM OVC060 02/01 A3001 RMK AO2 =
2014-10-31 02:15 METAR KLKU 310615Z AUTO 00000KT 10SM BKN060 02/01 A3002 RMK AO2 =
2014-10-31 01:55 METAR KLKU 310555Z AUTO 00000KT 10SM SCT060 01/00 A3002 RMK AO2 =
2014-10-31 01:35 METAR KLKU 310535Z AUTO 00000KT 10SM CLR 02/01 A3002 RMK AO2 =
2014-10-31 01:15 METAR KLKU 310515Z AUTO 35003KT 10SM CLR 02/01 A3002 RMK AO2 =
2014-10-31 00:55 METAR KLKU 310455Z AUTO 00000KT 10SM CLR 02/01 A3002 RMK AO2 =
2014-10-31 00:35 METAR KLKU 310435Z AUTO 00000KT 10SM CLR 02/01 A3003 RMK AO2 =
2014-10-31 00:15 METAR KLKU 310415Z AUTO 00000KT 10SM CLR 03/02 A3003 RMK AO2 =
2014-10-30 23:55 METAR KLKU 310355Z AUTO 00000KT 10SM CLR 03/02 A3003 RMK AO2 =
2014-10-30 23:35 METAR KLKU 310335Z AUTO 00000KT 10SM CLR 06/02 A3003 RMK AO2 =
2014-10-30 23:15 METAR KLKU 310315Z AUTO 00000KT 10SM CLR 06/02 A3003 RMK AO2 =
2014-10-30 22:55 METAR KLKU 310255Z AUTO 00000KT 10SM SCT060 06/02 A3004 RMK AO2 =
2014-10-30 22:35 METAR KLKU 310235Z AUTO 35003KT 10SM BKN060 07/02 A3004 RMK AO2 =
2014-10-30 22:15 METAR KLKU 310215Z AUTO 00000KT 10SM OVC060 08/02 A3004 RMK AO2 =
2014-10-30 21:55 METAR KLKU 310155Z AUTO 00000KT 10SM OVC060 08/03 A3004 RMK AO2 =
2014-10-30 21:35 METAR KLKU 310135Z AUTO 00000KT 10SM BKN060 06/02 A3004 RMK AO2 =
2014-10-30 21:15 METAR KLKU 310115Z AUTO 35003KT 10SM SCT060 07/02 A3004 RMK AO2 =
2014-10-30 20:55 METAR KLKU 310055Z AUTO 00000KT 10SM CLR 08/02 A3004 RMK AO2 =
2014-10-30 20:35 METAR KLKU 310035Z AUTO 00000KT 10SM CLR 08/02 A3004 RMK AO2 =
2014-10-30 20:15 METAR KLKU 310015Z AUTO 00000KT 10SM CLR 09/02 A3004 RMK AO2 =
2014-10-30 19:55 METAR KLKU 302355Z AUTO 01003KT 10SM CLR 09/02 A3004 RMK AO2 =
2014-10-30 19:35 METAR KLKU 302335Z AUTO 00000KT 10SM CLR 09/02 A3004 RMK AO2 =
2014-10-30 19:15 METAR KLKU 302315Z AUTO 36004KT 10SM CLR 08/03 A3004 RMK AO2 =
2014-10-30 18:55 METAR KLKU 302255Z AUTO 00000KT 10SM CLR 07/03 A3004 RMK AO2 =

Support USWX by starting your Amazon purchase here.